Time;durP1;ratioP1;P1;durP2;ratioP2;P2;SDS_P1;SDS_P2;PMS_P1;PMS_P2;Temp;Humidity;BMP_temperature;BMP_pressure;BME280_temperature;BME280_humidity;BME280_pressure;Samples;Min_cycle;Max_cycle;Signal;HPM_P1;HPM_P2
2023/03/08 00:00:53;;;;;;;6.68;5.68;;;;;;;2.55;62.69;98449.78;10427183;28;20057;-61
2023/03/08 00:05:55;;;;;;;6.93;5.38;;;;;;;2.40;62.78;98442.81;10438856;28;20040;-61
2023/03/08 00:10:56;;;;;;;7.07;5.90;;;;;;;2.51;62.91;98448.28;10433405;28;20044;-62
2023/03/08 00:16:03;;;;;;;8.13;6.57;;;;;;;2.62;63.02;98451.13;10436488;28;20485;-62
2023/03/08 00:21:10;;;;;;;10.77;8.18;;;;;;;2.68;63.02;98455.16;10431058;28;20101;-62
2023/03/08 00:26:13;;;;;;;9.48;7.00;;;;;;;2.70;62.94;98441.25;10433729;28;20056;-62
2023/03/08 00:31:14;;;;;;;8.43;7.05;;;;;;;2.78;62.90;98441.72;10432189;28;20055;-62
2023/03/08 00:36:18;;;;;;;9.38;7.05;;;;;;;2.66;62.66;98442.31;10434546;28;20576;-61
2023/03/08 00:41:19;;;;;;;11.27;7.70;;;;;;;2.57;63.21;98447.97;10430759;28;20523;-61
2023/03/08 00:46:21;;;;;;;11.43;9.10;;;;;;;2.48;62.95;98443.25;10430493;28;20048;-61
2023/03/08 00:51:23;;;;;;;14.35;10.45;;;;;;;2.41;63.37;98441.91;10433496;28;20701;-62
2023/03/08 00:56:24;;;;;;;13.02;9.25;;;;;;;2.54;63.51;98439.56;10432938;28;20056;-62
2023/03/08 01:01:26;;;;;;;10.18;8.05;;;;;;;2.61;63.16;98440.88;10434085;28;20452;-61
2023/03/08 01:06:28;;;;;;;9.88;7.97;;;;;;;2.55;63.10;98434.31;10432534;28;20048;-61
2023/03/08 01:11:32;;;;;;;10.85;8.07;;;;;;;2.58;63.19;98426.38;10429984;28;21324;-62
2023/03/08 01:16:33;;;;;;;9.10;7.68;;;;;;;2.45;62.96;98425.38;10436532;28;20447;-61
2023/03/08 01:21:35;;;;;;;10.30;8.00;;;;;;;2.43;63.34;98414.28;10414885;28;20142;-61
2023/03/08 01:26:36;;;;;;;15.77;9.98;;;;;;;2.57;63.36;98411.00;10432485;28;20074;-61
2023/03/08 01:31:38;;;;;;;23.50;14.82;;;;;;;2.58;63.13;98416.06;10428768;28;20037;-62
2023/03/08 01:36:40;;;;;;;14.77;11.98;;;;;;;2.45;63.28;98403.88;10429975;28;20048;-61
2023/03/08 01:41:41;;;;;;;18.35;12.77;;;;;;;2.35;63.69;98390.63;10429704;28;20615;-61
2023/03/08 01:46:43;;;;;;;18.20;11.65;;;;;;;2.48;63.54;98386.50;10437831;28;20440;-61
2023/03/08 01:52:13;;;;;;;15.10;11.32;;;;;;;2.55;63.48;98377.53;10430807;28;20047;-62
2023/03/08 01:57:28;;;;;;;20.08;13.57;;;;;;;2.43;63.30;98373.00;10426964;28;20704;-61
2023/03/08 02:02:37;;;;;;;20.60;14.70;;;;;;;2.35;63.46;98364.84;10413103;28;20063;-62
2023/03/08 02:07:39;;;;;;;20.17;14.88;;;;;;;2.29;63.49;98356.56;10428907;28;20432;-60
2023/03/08 02:12:41;;;;;;;18.27;13.07;;;;;;;2.40;63.63;98342.19;10428634;28;20055;-62
2023/03/08 02:17:43;;;;;;;14.18;10.80;;;;;;;2.45;63.44;98332.47;10431999;28;20298;-61
2023/03/08 02:22:46;;;;;;;15.70;11.68;;;;;;;2.45;63.23;98337.66;10426872;28;20175;-61
2023/03/08 02:27:50;;;;;;;16.92;11.55;;;;;;;2.43;63.20;98320.56;10432123;28;20061;-61
2023/03/08 02:32:51;;;;;;;19.77;13.85;;;;;;;2.38;63.46;98328.53;10409449;28;20515;-62
2023/03/08 02:37:53;;;;;;;21.38;14.30;;;;;;;2.35;63.34;98323.56;10410197;28;20406;-62
2023/03/08 02:42:55;;;;;;;17.50;13.30;;;;;;;2.31;63.37;98323.78;10428920;28;20148;-62
2023/03/08 02:47:57;;;;;;;17.40;12.63;;;;;;;2.30;63.60;98315.22;10427035;28;20073;-61
2023/03/08 02:52:58;;;;;;;18.27;13.88;;;;;;;2.25;63.49;98306.91;10429622;28;20072;-62
2023/03/08 02:58:02;;;;;;;16.77;12.98;;;;;;;2.34;63.59;98306.41;10430622;28;20045;-61
2023/03/08 03:03:03;;;;;;;18.80;13.38;;;;;;;2.37;63.34;98292.50;10432136;28;20045;-61
2023/03/08 03:08:05;;;;;;;19.52;14.05;;;;;;;2.37;63.59;98285.63;10438840;28;20472;-61
2023/03/08 03:13:07;;;;;;;18.23;13.18;;;;;;;2.30;63.52;98292.00;10434345;28;20460;-62
2023/03/08 03:18:09;;;;;;;17.00;12.43;;;;;;;2.12;63.59;98280.91;10435912;28;20163;-61
2023/03/08 03:23:10;;;;;;;14.88;11.10;;;;;;;2.21;63.73;98279.59;10438502;28;20056;-61
2023/03/08 03:28:12;;;;;;;13.88;11.20;;;;;;;2.21;63.46;98269.28;10435229;28;20178;-61
2023/03/08 03:33:14;;;;;;;14.68;11.40;;;;;;;2.15;63.61;98262.69;10416871;28;20052;-61
2023/03/08 03:38:15;;;;;;;12.77;10.15;;;;;;;2.05;63.35;98258.91;10417420;28;20044;-61
2023/03/08 03:43:17;;;;;;;18.10;12.13;;;;;;;2.04;63.62;98256.44;10433863;28;20129;-61
2023/03/08 03:48:19;;;;;;;14.60;9.68;;;;;;;2.12;63.41;98256.84;10437256;28;20055;-62
2023/03/08 03:53:20;;;;;;;20.05;13.15;;;;;;;1.96;63.47;98258.56;10435021;28;20056;-62
2023/03/08 03:58:22;;;;;;;12.65;9.73;;;;;;;1.96;63.63;98248.25;10434291;28;20413;-62
2023/03/08 04:03:24;;;;;;;11.90;7.75;;;;;;;1.81;63.96;98249.03;10431213;28;20049;-62
2023/03/08 04:08:26;;;;;;;14.15;8.43;;;;;;;1.84;63.93;98244.56;10429764;28;20072;-61
2023/03/08 04:13:28;;;;;;;14.40;9.25;;;;;;;1.68;63.42;98237.69;10425125;28;20421;-62
2023/03/08 04:18:29;;;;;;;14.82;10.27;;;;;;;1.51;64.18;98233.41;10429020;28;20366;-61
2023/03/08 04:23:32;;;;;;;21.15;12.75;;;;;;;1.54;64.27;98227.25;10426003;28;20055;-61
2023/03/08 04:28:33;;;;;;;18.38;12.68;;;;;;;1.60;64.03;98235.53;10428641;28;20052;-62
2023/03/08 04:33:35;;;;;;;26.08;15.88;;;;;;;1.53;64.09;98223.00;10426825;28;20037;-62
2023/03/08 04:38:37;;;;;;;18.48;13.00;;;;;;;1.46;64.55;98219.09;10411325;28;20045;-61
2023/03/08 04:43:53;;;;;;;17.50;11.85;;;;;;;1.49;65.06;98217.19;10442404;28;20067;-61
2023/03/08 04:48:55;;;;;;;17.50;13.05;;;;;;;1.44;64.92;98210.59;10429568;28;20056;-61
2023/03/08 04:53:57;;;;;;;33.47;19.02;;;;;;;1.48;64.79;98205.22;10436529;28;20409;-62
2023/03/08 04:58:59;;;;;;;22.52;15.57;;;;;;;1.44;64.84;98200.31;10436716;28;20074;-61
2023/03/08 05:04:00;;;;;;;20.80;15.32;;;;;;;1.44;64.76;98190.00;10449988;28;20071;-60
2023/03/08 05:09:02;;;;;;;21.80;15.00;;;;;;;1.30;64.98;98176.06;10432029;28;20051;-61
2023/03/08 05:14:04;;;;;;;20.02;15.45;;;;;;;1.30;65.19;98165.75;10433195;28;20040;-61
2023/03/08 05:19:06;;;;;;;29.83;18.42;;;;;;;1.35;65.37;98152.66;10433177;28;20049;-61
2023/03/08 05:24:07;;;;;;;39.88;19.33;;;;;;;1.38;65.18;98147.34;10434316;28;20186;-61
2023/03/08 05:29:09;;;;;;;29.48;17.85;;;;;;;1.42;65.09;98145.47;10434247;28;20048;-61
2023/03/08 05:34:10;;;;;;;30.77;19.50;;;;;;;1.53;64.85;98141.41;10433023;28;20049;-61
2023/03/08 05:39:12;;;;;;;32.05;14.70;;;;;;;1.48;65.20;98121.97;10433785;28;20040;-61
2023/03/08 05:44:14;;;;;;;44.47;19.45;;;;;;;1.53;65.08;98109.66;10438039;28;20055;-61
2023/03/08 05:49:15;;;;;;;21.90;15.32;;;;;;;1.50;65.26;98115.81;10429599;28;20068;-61
2023/03/08 05:54:17;;;;;;;20.30;14.55;;;;;;;1.54;65.22;98103.59;10433757;28;20048;-61
2023/03/08 05:59:19;;;;;;;41.95;18.85;;;;;;;1.51;65.05;98093.44;10412467;28;20057;-62
2023/03/08 06:04:20;;;;;;;27.65;16.45;;;;;;;1.50;65.32;98109.84;10432763;28;20063;-62
2023/03/08 06:09:22;;;;;;;28.40;17.17;;;;;;;1.62;65.08;98104.88;10429866;28;20416;-62
2023/03/08 06:14:24;;;;;;;35.15;18.90;;;;;;;1.60;65.06;98092.97;10433273;28;20060;-61
2023/03/08 06:19:26;;;;;;;66.78;23.88;;;;;;;1.52;65.13;98087.41;10430160;28;20293;-61
2023/03/08 06:24:27;;;;;;;35.90;18.98;;;;;;;1.48;65.12;98088.47;10430190;28;20055;-61
2023/03/08 06:29:29;;;;;;;44.83;22.25;;;;;;;1.47;65.25;98071.34;10441547;28;20052;-62
2023/03/08 06:34:31;;;;;;;24.77;16.95;;;;;;;1.44;65.62;98074.09;10430475;28;20053;-61
2023/03/08 06:39:33;;;;;;;42.70;20.13;;;;;;;1.60;65.31;98062.91;10429775;28;20044;-61
2023/03/08 06:44:34;;;;;;;29.52;18.92;;;;;;;1.65;65.11;98052.31;10429713;28;20059;-61
2023/03/08 06:49:40;;;;;;;28.90;19.50;;;;;;;1.65;65.14;98045.44;10437789;28;20419;-61
2023/03/08 06:54:42;;;;;;;25.90;17.80;;;;;;;1.70;65.00;98050.34;10434585;28;20052;-62
2023/03/08 06:59:44;;;;;;;29.58;18.65;;;;;;;1.77;65.00;98037.03;10423936;28;20063;-61
2023/03/08 07:04:45;;;;;;;26.52;17.52;;;;;;;1.91;64.84;98029.38;10419251;28;20636;-62
2023/03/08 07:09:50;;;;;;;36.15;20.35;;;;;;;1.92;64.53;98004.44;10426245;28;20136;-62
2023/03/08 07:14:52;;;;;;;44.60;21.20;;;;;;;1.95;64.64;97999.13;10420320;28;20049;-63
2023/03/08 07:19:53;;;;;;;36.72;19.70;;;;;;;1.92;64.67;97978.66;10428995;28;20057;-64
2023/03/08 07:24:55;;;;;;;22.20;15.63;;;;;;;1.88;64.54;97969.44;10411016;28;20215;-63
2023/03/08 07:29:57;;;;;;;40.30;20.48;;;;;;;1.78;64.44;97969.13;10430505;28;20056;-63
2023/03/08 07:34:59;;;;;;;21.70;15.60;;;;;;;1.77;64.86;97951.16;10434456;28;20045;-63
2023/03/08 07:40:05;;;;;;;45.97;19.67;;;;;;;1.67;65.10;97942.28;10427345;28;20049;-63
2023/03/08 07:45:08;;;;;;;46.53;19.10;;;;;;;1.69;65.17;97935.31;10433132;28;20057;-62
2023/03/08 07:50:11;;;;;;;37.05;20.83;;;;;;;1.48;65.39;97926.19;10454074;28;20519;-63
2023/03/08 07:55:13;;;;;;;41.15;19.35;;;;;;;1.58;65.46;97906.75;10420760;28;20636;-63
2023/03/08 08:00:15;;;;;;;34.67;20.23;;;;;;;1.74;65.38;97902.38;10405885;28;20292;-63
2023/03/08 08:05:17;;;;;;;29.20;18.58;;;;;;;1.94;65.23;97891.78;10404299;28;20079;-63
2023/03/08 08:10:19;;;;;;;39.05;20.85;;;;;;;2.01;64.94;97878.44;10422746;28;20049;-62
2023/03/08 08:15:24;;;;;;;30.17;18.70;;;;;;;2.01;64.82;97886.16;10424473;28;20041;-62
2023/03/08 08:20:26;;;;;;;77.57;22.33;;;;;;;2.04;64.85;97869.69;10421573;28;20164;-63
2023/03/08 08:25:28;;;;;;;237.38;23.65;;;;;;;1.99;64.90;97867.38;10439141;28;20517;-62
2023/03/08 08:30:29;;;;;;;125.72;27.15;;;;;;;1.93;64.94;97852.28;10415918;28;20051;-63
2023/03/08 08:35:31;;;;;;;30.88;19.20;;;;;;;1.92;65.10;97844.63;10425570;28;20331;-63
2023/03/08 08:40:43;;;;;;;28.48;19.15;;;;;;;1.79;65.27;97839.34;10431757;28;20538;-63
2023/03/08 08:45:47;;;;;;;32.70;21.08;;;;;;;1.82;65.30;97820.31;10426333;28;20535;-62
2023/03/08 08:50:50;;;;;;;28.35;19.35;;;;;;;1.76;65.39;97816.34;10432907;28;20055;-63
2023/03/08 08:55:52;;;;;;;41.15;22.63;;;;;;;1.61;65.68;97808.66;10421917;28;20041;-62
2023/03/08 09:00:53;;;;;;;37.45;21.60;;;;;;;1.59;65.79;97813.91;10428903;28;20049;-63
2023/03/08 09:05:57;;;;;;;36.15;22.02;;;;;;;1.74;65.56;97802.72;10425853;28;20048;-63
2023/03/08 09:11:07;;;;;;;38.17;22.15;;;;;;;2.16;65.19;97797.63;10430754;28;20041;-63
2023/03/08 09:16:20;;;;;;;28.70;17.40;;;;;;;2.42;64.42;97798.63;10424396;28;20446;-63
2023/03/08 09:21:23;;;;;;;26.55;17.40;;;;;;;2.57;64.28;97791.69;10428219;28;20484;-63
2023/03/08 09:26:25;;;;;;;24.70;16.45;;;;;;;2.95;63.40;97790.97;10410609;28;20517;-63
2023/03/08 09:31:26;;;;;;;21.92;15.25;;;;;;;3.26;62.85;97781.28;10431179;28;20338;-69
2023/03/08 09:36:28;;;;;;;24.77;15.93;;;;;;;3.81;62.06;97769.00;10424848;28;20049;-69
2023/03/08 09:41:44;;;;;;;23.73;15.18;;;;;;;4.28;61.13;97755.47;10427428;28;20036;-69
2023/03/08 09:46:52;;;;;;;15.40;9.93;;;;;;;4.66;59.80;97749.28;10409714;28;20048;-69
2023/03/08 09:52:03;;;;;;;17.73;13.25;;;;;;;4.92;58.75;97731.06;10425596;28;20049;-68
2023/03/08 09:57:10;;;;;;;;;;;;;;;4.35;58.96;97726.47;10435838;28;20513;-68
2023/03/08 10:02:27;;;;;;;17.40;12.00;;;;;;;4.31;60.05;97721.63;10428179;28;19924;-69
2023/03/08 10:07:39;;;;;;;14.32;9.98;;;;;;;3.97;60.11;97720.50;10425530;28;20484;-69
2023/03/08 10:12:51;;;;;;;12.90;9.68;;;;;;;3.77;60.68;97708.91;10425856;28;20064;-71
2023/03/08 10:18:01;;;;;;;11.68;8.32;;;;;;;3.69;60.95;97705.19;10424575;28;20052;-70
2023/03/08 10:23:13;;;;;;;17.35;11.35;;;;;;;3.31;61.85;97704.31;10423220;28;20064;-70
2023/03/08 10:28:24;;;;;;;22.38;13.30;;;;;;;3.07;62.57;97702.41;10426685;28;20088;-70
2023/03/08 10:33:31;;;;;;;14.65;9.77;;;;;;;2.92;63.04;97692.25;10427096;28;20105;-71
2023/03/08 10:38:35;;;;;;;13.93;9.95;;;;;;;3.26;62.49;97681.38;10427394;28;20130;-70
2023/03/08 10:43:51;;;;;;;16.35;10.55;;;;;;;3.40;62.51;97670.13;10405337;28;20144;-70
2023/03/08 10:48:53;;;;;;;15.15;10.82;;;;;;;3.25;62.82;97671.16;10423303;28;20049;-70
2023/03/08 10:54:01;;;;;;;19.42;12.15;;;;;;;3.51;62.44;97665.06;10424254;28;20048;-70
2023/03/08 10:59:05;;;;;;;14.43;10.02;;;;;;;3.74;62.33;97649.66;10408504;28;20136;-70
2023/03/08 11:04:19;;;;;;;16.60;10.98;;;;;;;4.08;61.59;97663.72;10406265;28;20056;-70
2023/03/08 11:09:29;;;;;;;21.35;13.38;;;;;;;3.97;61.85;97657.63;10427633;28;20049;-70
2023/03/08 11:14:31;;;;;;;23.40;14.03;;;;;;;3.69;62.49;97661.25;10423098;28;20052;-68
2023/03/08 11:20:06;;;;;;;17.38;13.02;;;;;;;3.65;62.86;97660.63;10424174;28;20064;-69
2023/03/08 11:25:08;;;;;;;14.45;10.95;;;;;;;4.14;62.22;97657.28;10422863;28;20043;-68
2023/03/08 11:30:21;;;;;;;17.58;12.50;;;;;;;4.53;61.36;97654.47;10424577;28;20045;-69
2023/03/08 11:35:42;;;;;;;18.50;13.13;;;;;;;4.56;60.95;97649.91;10417250;28;20052;-68
2023/03/08 11:40:47;;;;;;;19.33;13.80;;;;;;;4.34;60.97;97642.03;10407326;28;20073;-69
2023/03/08 11:46:27;;;;;;;19.58;13.00;;;;;;;4.02;61.83;97638.28;10423531;28;20079;-67
2023/03/08 11:51:43;;;;;;;14.65;10.23;;;;;;;4.06;61.67;97633.72;10406541;28;20049;-68
2023/03/08 11:56:51;;;;;;;15.82;11.10;;;;;;;4.30;61.32;97622.47;10422302;28;20059;-68
2023/03/08 12:02:12;;;;;;;12.00;9.50;;;;;;;4.22;61.45;97621.34;10423452;28;20053;-68
2023/03/08 12:07:54;;;;;;;15.00;10.20;;;;;;;3.99;61.68;97622.13;10418077;28;20469;-67
2023/03/08 12:13:12;;;;;;;16.55;11.27;;;;;;;3.96;62.13;97612.84;10368994;28;20078;-68
2023/03/08 12:18:30;;;;;;;14.65;11.25;;;;;;;4.19;62.02;97606.88;10426279;28;20045;-68
2023/03/08 12:23:41;;;;;;;17.35;11.20;;;;;;;4.10;61.85;97610.13;10425089;28;20052;-68
2023/03/08 12:28:52;;;;;;;19.88;12.68;;;;;;;4.18;61.96;97617.34;10408370;28;20059;-67
2023/03/08 12:33:57;;;;;;;16.73;11.45;;;;;;;4.09;61.80;97616.22;10421358;28;20056;-68
2023/03/08 12:39:21;;;;;;;17.33;11.57;;;;;;;4.01;62.12;97605.59;10423126;28;20055;-68
2023/03/08 12:44:29;;;;;;;22.80;13.32;;;;;;;4.04;62.43;97597.63;10421481;28;20208;-68
2023/03/08 12:49:36;;;;;;;30.95;19.50;;;;;;;4.06;62.28;97595.75;10424618;28;20049;-68
2023/03/08 12:54:40;;;;;;;17.25;11.68;;;;;;;4.21;62.45;97586.88;10418703;28;20699;-68
2023/03/08 12:59:43;;;;;;;14.90;10.93;;;;;;;4.24;62.43;97596.19;10420742;28;20740;-67
2023/03/08 13:04:45;;;;;;;18.52;12.93;;;;;;;4.03;62.39;97587.41;10421468;28;20087;-68
2023/03/08 13:09:53;;;;;;;23.13;16.00;;;;;;;3.86;63.31;97580.81;10421231;28;20049;-68
2023/03/08 13:15:28;;;;;;;32.25;18.25;;;;;;;3.62;63.76;97572.94;10428892;28;20085;-67
2023/03/08 13:20:38;;;;;;;19.92;12.68;;;;;;;3.63;64.00;97566.88;10409562;28;20163;-68
2023/03/08 13:25:54;;;;;;;21.17;14.23;;;;;;;3.85;63.75;97564.47;10424271;28;20059;-68
2023/03/08 13:30:59;;;;;;;21.75;16.25;;;;;;;3.79;63.87;97584.72;10429104;28;20085;-68
2023/03/08 13:36:13;;;;;;;28.02;17.77;;;;;;;3.71;63.96;97580.09;10429904;28;20073;-67
2023/03/08 13:41:15;;;;;;;18.95;13.60;;;;;;;3.56;64.24;97582.88;10426269;28;20041;-68
2023/03/08 13:46:17;;;;;;;12.85;10.15;;;;;;;3.58;64.43;97583.59;10408948;28;20052;-68
2023/03/08 13:51:22;;;;;;;14.70;10.52;;;;;;;3.64;64.34;97575.47;10424481;28;20175;-67
2023/03/08 13:56:26;;;;;;;17.17;12.82;;;;;;;3.67;64.12;97554.53;10429600;28;20142;-68
2023/03/08 14:01:28;;;;;;;16.77;12.23;;;;;;;3.57;64.35;97548.38;10427772;28;20281;-68
2023/03/08 14:06:36;;;;;;;17.50;12.68;;;;;;;3.46;64.60;97551.69;10425147;28;20051;-68
2023/03/08 14:11:40;;;;;;;16.83;12.30;;;;;;;3.58;64.74;97529.34;10428093;28;20057;-68
2023/03/08 14:16:42;;;;;;;15.90;12.50;;;;;;;3.56;64.68;97526.03;10407775;28;20052;-68
2023/03/08 14:21:54;;;;;;;18.60;12.65;;;;;;;3.49;65.16;97538.56;10426512;28;20450;-68
2023/03/08 14:27:03;;;;;;;19.15;12.75;;;;;;;3.42;65.15;97523.56;10409950;28;20052;-68
2023/03/08 14:32:29;;;;;;;18.52;14.07;;;;;;;3.20;65.98;97528.56;10426511;28;20135;-68
2023/03/08 14:37:31;;;;;;;17.77;11.90;;;;;;;3.09;65.92;97538.81;10428807;28;20049;-68
2023/03/08 14:42:43;;;;;;;17.60;12.77;;;;;;;2.96;66.41;97528.47;10425624;28;20057;-68
2023/03/08 14:47:52;;;;;;;10.73;8.18;;;;;;;2.93;66.40;97520.94;10424853;28;20103;-67
2023/03/08 14:52:58;;;;;;;11.07;8.82;;;;;;;2.99;66.09;97508.44;10437717;28;20493;-69
2023/03/08 14:58:10;;;;;;;18.55;13.15;;;;;;;2.97;66.14;97502.53;10445920;28;20209;-67
2023/03/08 15:03:11;;;;;;;15.50;11.93;;;;;;;3.01;66.25;97504.00;10422427;28;20413;-68
2023/03/08 15:08:16;;;;;;;17.20;11.68;;;;;;;3.03;66.38;97516.78;10410419;28;20048;-68
2023/03/08 15:13:19;;;;;;;13.32;10.73;;;;;;;3.03;66.25;97503.88;10426926;28;20501;-68
2023/03/08 15:18:21;;;;;;;17.67;12.82;;;;;;;3.07;66.25;97480.34;10447769;28;20052;-69
2023/03/08 15:23:26;;;;;;;15.50;12.30;;;;;;;3.02;66.86;97489.34;10441528;28;20416;-68
2023/03/08 15:28:27;;;;;;;15.65;11.73;;;;;;;3.22;66.48;97470.72;10441875;28;20160;-68
2023/03/08 15:33:29;;;;;;;15.52;12.93;;;;;;;3.39;66.02;97478.13;10440361;28;20067;-68
2023/03/08 15:38:31;;;;;;;23.05;17.30;;;;;;;3.44;65.90;97459.69;10467430;28;20106;-67
2023/03/08 15:43:32;;;;;;;25.70;17.60;;;;;;;3.46;66.01;97458.66;10438715;28;20045;-67
2023/03/08 15:48:34;;;;;;;23.48;17.30;;;;;;;3.47;65.89;97454.34;10456584;28;20048;-68
2023/03/08 15:53:36;;;;;;;33.42;21.10;;;;;;;3.39;66.01;97452.31;10460290;28;20044;-68
2023/03/08 15:58:37;;;;;;;40.15;21.35;;;;;;;3.45;66.06;97449.28;10425280;28;20060;-68
2023/03/08 16:03:39;;;;;;;24.23;17.08;;;;;;;3.44;66.03;97449.38;10425364;28;20673;-67
2023/03/08 16:08:41;;;;;;;21.42;16.33;;;;;;;3.10;66.96;97455.25;10452081;28;20049;-67
2023/03/08 16:13:43;;;;;;;22.90;16.00;;;;;;;2.76;68.02;97542.72;10425577;28;20060;-67
2023/03/08 16:18:45;;;;;;;14.13;10.18;;;;;;;2.73;68.18;97521.44;10458371;28;20052;-67
2023/03/08 16:23:47;;;;;;;12.80;10.18;;;;;;;2.78;67.90;97507.31;10445655;28;20311;-68
2023/03/08 16:28:49;;;;;;;12.98;10.63;;;;;;;3.02;67.73;97487.59;10461444;28;20051;-67
2023/03/08 16:33:50;;;;;;;13.32;11.20;;;;;;;3.00;67.54;97471.38;10466135;28;20381;-68
2023/03/08 16:38:52;;;;;;;19.25;13.85;;;;;;;2.95;67.92;97478.59;10452801;28;20053;-67
2023/03/08 16:43:57;;;;;;;14.60;11.30;;;;;;;3.03;67.89;97467.72;10439764;28;20057;-68
2023/03/08 16:48:59;;;;;;;18.20;13.02;;;;;;;2.93;68.14;97466.72;10432167;28;20481;-68
2023/03/08 16:54:00;;;;;;;21.48;14.68;;;;;;;2.95;68.33;97475.19;10446223;28;20401;-68
2023/03/08 16:59:02;;;;;;;25.77;17.55;;;;;;;3.06;68.39;97488.19;10463462;28;20045;-67
2023/03/08 17:04:04;;;;;;;26.90;18.42;;;;;;;3.15;68.04;97481.59;10436523;28;20053;-68
2023/03/08 17:09:06;;;;;;;53.63;16.33;;;;;;;2.87;68.74;97532.50;10452191;28;20819;-67
2023/03/08 17:14:10;;;;;;;12.90;10.75;;;;;;;2.92;68.65;97517.53;10447109;28;20072;-68
2023/03/08 17:19:12;;;;;;;20.02;14.73;;;;;;;3.20;68.29;97497.56;10443825;28;20586;-68
2023/03/08 17:24:13;;;;;;;21.48;15.45;;;;;;;3.37;67.69;97487.75;10434475;28;20056;-67
2023/03/08 17:29:15;;;;;;;35.63;22.35;;;;;;;3.40;67.49;97490.09;10434641;28;20301;-67
2023/03/08 17:34:20;;;;;;;27.98;20.25;;;;;;;3.39;67.50;97497.97;10440235;28;20523;-68
2023/03/08 17:39:22;;;;;;;40.50;25.33;;;;;;;3.49;67.42;97498.97;10427189;28;20049;-68
2023/03/08 17:44:24;;;;;;;91.43;30.35;;;;;;;3.41;67.37;97491.78;10430903;28;20527;-67
2023/03/08 17:49:26;;;;;;;31.77;18.13;;;;;;;3.36;67.67;97500.75;10430731;28;20044;-68
2023/03/08 17:54:27;;;;;;;28.27;18.00;;;;;;;3.49;67.21;97489.47;10430319;28;20512;-68
2023/03/08 17:59:29;;;;;;;44.58;22.88;;;;;;;3.51;67.17;97491.94;10430291;28;20053;-67
2023/03/08 18:04:31;;;;;;;31.27;19.08;;;;;;;3.56;67.01;97501.03;10434947;28;20056;-67
2023/03/08 18:09:33;;;;;;;67.90;27.85;;;;;;;3.60;66.99;97499.06;10431627;28;20055;-68
2023/03/08 18:14:34;;;;;;;66.95;36.90;;;;;;;3.68;66.79;97499.34;10456140;28;20524;-67
2023/03/08 18:19:41;;;;;;;59.55;27.15;;;;;;;3.38;67.22;97493.72;10451658;28;20061;-68
2023/03/08 18:24:43;;;;;;;35.08;22.02;;;;;;;3.51;67.13;97503.13;10437592;28;20682;-61
2023/03/08 18:29:45;;;;;;;35.70;24.05;;;;;;;3.49;67.21;97499.81;10414937;28;20053;-61
2023/03/08 18:34:47;;;;;;;56.33;31.35;;;;;;;3.50;67.31;97500.63;10434747;28;20052;-61
2023/03/08 18:39:53;;;;;;;44.78;29.13;;;;;;;3.48;67.23;97486.97;10435142;28;20331;-61
2023/03/08 18:44:54;;;;;;;144.05;40.90;;;;;;;3.31;67.22;97495.94;10436192;28;20053;-61
2023/03/08 18:49:56;;;;;;;32.45;23.38;;;;;;;3.18;67.85;97505.44;10426644;28;20040;-61
2023/03/08 18:54:58;;;;;;;62.33;31.40;;;;;;;3.41;67.50;97502.09;10430648;28;20041;-61
2023/03/08 19:00:00;;;;;;;49.08;27.60;;;;;;;3.57;67.14;97505.28;10432737;28;20409;-61
2023/03/08 19:05:01;;;;;;;62.47;30.52;;;;;;;3.69;67.00;97503.56;10446140;28;20427;-61
2023/03/08 19:10:03;;;;;;;376.92;43.97;;;;;;;3.63;66.86;97499.66;10432458;28;20578;-61
2023/03/08 19:15:06;;;;;;;528.78;42.75;;;;;;;3.36;67.33;97493.00;10427693;28;20060;-61
2023/03/08 19:20:08;;;;;;;96.40;28.63;;;;;;;3.38;67.65;97499.72;10430179;28;20063;-61
2023/03/08 19:25:10;;;;;;;266.38;35.58;;;;;;;3.45;67.47;97495.78;10431805;28;20412;-61
2023/03/08 19:30:12;;;;;;;53.10;30.58;;;;;;;3.49;67.07;97491.22;10428258;28;20066;-61
2023/03/08 19:35:14;;;;;;;114.90;33.60;;;;;;;3.24;67.87;97470.59;10446253;28;20702;-61
2023/03/08 19:40:16;;;;;;;53.65;30.70;;;;;;;3.32;67.71;97478.66;10430350;28;20037;-61
2023/03/08 19:45:18;;;;;;;56.30;31.63;;;;;;;3.44;67.55;97485.53;10427421;28;20081;-61
2023/03/08 19:50:19;;;;;;;112.10;39.47;;;;;;;3.16;67.91;97485.81;10427343;28;20052;-61
2023/03/08 19:55:21;;;;;;;31.85;23.33;;;;;;;3.25;67.79;97485.19;10426172;28;20044;-60
2023/03/08 20:00:23;;;;;;;39.85;26.20;;;;;;;3.34;67.69;97476.78;10426556;28;20045;-61
2023/03/08 20:05:26;;;;;;;96.18;39.22;;;;;;;3.33;67.76;97483.72;10424529;28;20060;-61
2023/03/08 20:10:28;;;;;;;47.33;28.48;;;;;;;3.23;67.92;97480.13;10427123;28;20091;-61
2023/03/08 20:15:30;;;;;;;52.58;28.77;;;;;;;3.27;67.80;97479.00;10425816;28;20055;-60
2023/03/08 20:20:32;;;;;;;36.55;23.55;;;;;;;3.30;67.80;97486.50;10435137;28;20057;-61
2023/03/08 20:25:34;;;;;;;40.10;25.00;;;;;;;3.47;67.38;97491.34;10435657;28;20060;-61
2023/03/08 20:30:37;;;;;;;58.83;29.45;;;;;;;3.43;67.18;97502.81;10433049;28;20063;-61
2023/03/08 20:35:38;;;;;;;45.17;26.33;;;;;;;3.42;67.21;97498.56;10433221;28;20049;-60
2023/03/08 20:40:40;;;;;;;46.55;25.67;;;;;;;3.56;67.21;97502.78;10431411;28;20359;-61
2023/03/08 20:45:43;;;;;;;39.70;24.25;;;;;;;3.68;66.94;97507.09;10431804;28;20055;-61
2023/03/08 20:50:45;;;;;;;236.65;40.28;;;;;;;3.75;66.98;97508.31;10437014;28;20756;-61
2023/03/08 20:55:47;;;;;;;373.85;47.78;;;;;;;3.76;66.72;97491.88;10441044;28;20555;-61
2023/03/08 21:00:49;;;;;;;265.73;28.65;;;;;;;3.58;67.08;97480.22;10428727;28;20190;-61
2023/03/08 21:05:51;;;;;;;69.95;33.65;;;;;;;3.47;67.33;97480.16;10436178;28;20832;-61
2023/03/08 21:10:57;;;;;;;121.97;35.00;;;;;;;3.53;67.32;97477.16;10434970;28;20052;-62
2023/03/08 21:16:08;;;;;;;86.30;34.35;;;;;;;3.63;67.17;97457.50;10431523;28;20056;-61
2023/03/08 21:21:22;;;;;;;53.15;27.35;;;;;;;3.55;67.00;97457.19;10437214;28;20069;-61
2023/03/08 21:26:26;;;;;;;71.50;32.53;;;;;;;3.50;67.20;97448.94;10448810;28;20049;-61
2023/03/08 21:31:31;;;;;;;52.08;27.77;;;;;;;3.59;66.88;97443.97;10432939;28;20049;-62
2023/03/08 21:36:36;;;;;;;51.10;26.80;;;;;;;3.67;66.81;97435.66;10441036;28;20091;-62
2023/03/08 21:41:41;;;;;;;37.28;23.90;;;;;;;3.73;66.69;97430.03;10431821;28;20107;-61
2023/03/08 21:46:45;;;;;;;52.67;29.33;;;;;;;3.62;66.64;97411.91;10434916;28;20504;-61
2023/03/08 21:51:48;;;;;;;44.05;28.42;;;;;;;3.60;66.89;97413.78;10433695;28;20041;-62
2023/03/08 21:56:50;;;;;;;66.75;31.52;;;;;;;3.50;66.75;97405.00;10430031;28;20039;-62
2023/03/08 22:01:56;;;;;;;45.22;28.10;;;;;;;3.50;66.91;97402.44;10432552;28;20559;-61
2023/03/08 22:06:57;;;;;;;57.42;31.73;;;;;;;3.61;66.73;97382.66;10413352;28;20069;-61
2023/03/08 22:11:59;;;;;;;42.63;28.98;;;;;;;3.55;66.84;97380.50;10413898;28;20044;-61
2023/03/08 22:17:02;;;;;;;60.97;32.90;;;;;;;3.57;66.52;97372.66;10430956;28;20052;-61
2023/03/08 22:22:04;;;;;;;35.75;25.38;;;;;;;3.50;66.77;97358.50;10430256;28;20056;-62
2023/03/08 22:27:06;;;;;;;47.75;29.58;;;;;;;3.59;66.85;97357.84;10430465;28;20487;-61
2023/03/08 22:32:08;;;;;;;36.50;25.67;;;;;;;3.69;66.57;97346.75;10436017;28;20064;-61
2023/03/08 22:37:11;;;;;;;59.03;32.58;;;;;;;3.54;66.78;97345.25;10431464;28;20052;-62
2023/03/08 22:42:13;;;;;;;29.25;20.77;;;;;;;3.57;66.93;97345.06;10429590;28;20509;-61
2023/03/08 22:47:17;;;;;;;37.72;26.00;;;;;;;3.59;66.90;97326.84;10434637;28;20573;-61
2023/03/08 22:52:18;;;;;;;59.47;32.70;;;;;;;3.61;66.84;97317.22;10432354;28;20126;-61
2023/03/08 22:57:20;;;;;;;80.50;36.00;;;;;;;3.62;67.13;97313.72;10429871;28;20473;-61
2023/03/08 23:02:23;;;;;;;73.30;35.78;;;;;;;3.70;66.82;97313.97;10432135;28;20049;-61
2023/03/08 23:07:24;;;;;;;52.60;29.85;;;;;;;3.58;67.11;97307.09;10428460;28;20576;-61
2023/03/08 23:12:26;;;;;;;62.53;34.25;;;;;;;3.68;66.92;97305.50;10429344;28;20061;-61
2023/03/08 23:17:28;;;;;;;78.68;37.55;;;;;;;3.60;67.10;97307.84;10429744;28;20868;-62
2023/03/08 23:22:30;;;;;;;59.45;33.28;;;;;;;3.39;67.51;97317.13;10430807;28;20564;-61